首页
METAR-TAF:

METAR-TAF

机场 :

雅典, 希腊

雅典埃莱夫塞里奥斯·韦尼泽洛斯国际机场

纬度: 37-56N, 经度: 023-56E, 海拔: 94米

当前天气观测

该预报发布于22分钟前的17:50 UTC
风速4节,风向
温度 18°C
湿度 68%
气压 1015 hPa
能见度10公里或以上
1500米以下无云,无积雨云

METAR: LGAV 241750Z 18004KT CAVOK 18/12 Q1015 NOSIG

时间: 21:12 (18:12 UTC)

预报

该预报发布于1小时和12分钟前的17:00 UTC
预报有效从24日的 18点(UTC)到 25日的 18点(UTC)
风速3节,风向多变
能见度10公里或以上
少量云层高于3000英尺
成为
从 25日的 08点(UTC)到 25日的 10点(UTC)
风速10节,风向

TAF: LGAV 241700Z 2418/2518 VRB03KT 9999 FEW030 BECMG 2508/2510 08010KT

超过4000个机场的气象观测和天气预报(METAR&TAF报告)。

可查询的气象台以黄色和红色小点在地图上表示。

将鼠标移到小点上方,可查看气象台名称。

然后点击查看天气观测和预报。

如需切换地图:点击带黑十字的绿色按钮放大地图;点击带横线的绿色按钮缩小地图;或者点击绿色箭头查看邻近地区的地图。


METAR-TAF: